ETAR

Ramstein Air Base Airport

Ramstein, Germany
METAR ETAR 230656Z AUTO 03013G20KT 9999 CLR M04/M09 A3002 RMK AO2 SLP185 T10401094 $
Observed Flight Rules
Feb-23 @ 06:56 UTC (an hour ago) Visual Flight Rules
Wind Visibility Clouds
30° at 13 knots
 Gusting to 20 knots
10,000+ meters
  • Clear skies
Temperatures Readings
Current -4°C / 25°F
Dewpoint -9°C / 16°F
Humidity 69%
Altimeter 30.02" Hg
Pressure 1018.5 hPa
Elevation 238
METAR ETAR 230656Z AUTO 03013G20KT 9999 CLR M04/M09 A3002 RMK AO2 SLP185 T10401094 $
Observed Flight Rules
Feb-23 @ 06:56 UTC
(an hour ago)
VFR
Wind Visibility
30° at 13 knots
 Gusting to 20 knots
10,000+ meters
Clouds
  • Clear skies
Temperature Dewpoint
-4°C / 25°F -9°C / 16°F
Humidity Altimeter Pressure
69% 30.02" Hg 1018.5 hPa